OPMET Data Slovakia - 07.10.2022 19:04:33
Air Navigation Services of Czech Republic
OPMET data - Slovakia Updated:  07.10.2022 19:04:33  UTC
SIGMET / AIRMET - NIL
AIREP - NIL
 
METAR / SPECI
METAR LZIB 071900Z 08004KT CAVOK 14/11 Q1023 NOSIG=
METAR LZKZ 071900Z 34002KT CAVOK 13/10 Q1025 NOSIG=
METAR LZPP 071900Z 13008KT CAVOK 16/12 Q1023=
METAR LZTT 071900Z 25004KT CAVOK 09/08 Q1025=
METAR LZZI 071900Z 21002KT 9999 BCFG NSC 10/09 Q1023=
TAF
TAF LZIB 071715Z 0718/0818 13007KT CAVOK      TEMPO 0800/0806 2500 BR BCFG BKN002      BECMG 0806/0807 08004KT      BECMG 0810/0812 19004KT=
TAF LZKZ 071715Z 0718/0818 VRB02KT CAVOK      TEMPO 0722/0806 2500 BR BCFG BKN002      BECMG 0806/0808 20004KT      BECMG 0811/0812 21011KT=
TAF LZPP 071715Z 0718/0803 13006KT CAVOK      TEMPO 0800/0803 3000 BR BCFG BKN004=
TAF LZTT 071715Z 0718/0818 VRB02KT 9999 FEW040      PROB40 TEMPO 0802/0806 3000 BR BCFG BKN004      BECMG 0807/0809 22007KT=
TAF LZZI 071715Z 0718/0803 VRB02KT CAVOK      TEMPO 0722/0803 2000 BR BCFG BKN002      PROB40 TEMPO 0722/0803 0100 FG OVC001=

Login

using the Single Sign On for Aeronautical Information Service applications service.
What is it?

External METEO

Other Aerodrome in CR

6.0.0.05145@ibs-dmz1